Tyler, TX (75701)

11:05 AM CST on November 23, 2014 (GMT -0600)
McDonaldRd | Change Station
CLOSE
Current Station
Personal Weather Station
Location: Tyler, TX
Elevation: 623 ft
Nearby Weather Stations
Active Advisory: Lake Wind Advisory

Elev 623 ft 32.32 °N, 95.27 °W | Updated 3 minutes ago

Overcast
Overcast
63.9 °F
Feels Like 63.9 °F
N
3.0
Wind Variable Wind from NW
Gusts 12.0 mph

Today
High -- | Low -- °F
--% Chance of Precip.
Yesterday
High -- | Low -- °F
Precip. -- in
6:57 AM 5:17 PM
New Moon, 2% visible
Pressure 29.52 in
Visibility 10.0 miles
Clouds Mostly Cloudy 1000 ft
Mostly Cloudy 1500 ft
Dew Point 60 °F
Humidity 86%
Rainfall 0.00 in
Snow Depth Not available.
UV 2 out of 12
Pollen .40 out of 12
Air Quality Not available.
Flu Activity Not available.
METAR KTYR 231653Z 23014KT 10SM BKN010 BKN015 17/14 A2953 RMK AO2 CIG 007V013 SLP996 T01720144

More Conditions Fewer Conditions

Pressure 29.52 in
Visibility 10.0 miles
Clouds Mostly Cloudy 1000 ft
Mostly Cloudy 1500 ft
Dew Point 60 °F
Humidity 86%
Rainfall 0.00 in
Snow Depth Not available.
UV 2 out of 12
Pollen .40 out of 12
Air Quality Not available.
Flu Activity Not available.
METAR KTYR 231653Z 23014KT 10SM BKN010 BKN015 17/14 A2953 RMK AO2 CIG 007V013 SLP996 T01720144

More Conditions Fewer Conditions

10-Day Weather Forecast

Almanac

Astronomy

Nov. 23, 2014 Rise Set
Actual Time
Civil Twilight
Nautical Twilight
Astronomical Twilight
Moon
Length of Visible Light
Length of Day
Tomorrow will be .
, % of the Moon is Illuminated

Today's Extremes

State Highs State Lows

Community

WunderPhotos

Upload Photos

1,773,098 photos uploaded!

WunderBlogs® & News

Nearby

Air Quality

  Air Quality AQ Index Pollutant
Not available.

Snow Depth

Station Depth Elevation

Earthquake Activity

City Distance Mag. Time & Date
Minimum magnitude displayed is 2.5.

Coastal Water Temperatures

Place Temperature

Nearby Weather Stations